Wetterdaten: Woche 10.11.14 - 16.11.14 (KW46)
Datum Zeit Temp. A. Feuchte A. Luftdruck Regen Wind Richtung Taupunkt Windchill Windben
10.11.2014 00:00 9,9 C 83 % 1012,2 hPa 0,0 l/m 0,8 km/h N 7,2 C 9,9 C 5,2 km/h
10.11.2014 01:00 9,6 C 83 % 1012,4 hPa 0,0 l/m 0,1 km/h N 6,9 C 9,6 C 1,6 km/h
10.11.2014 02:00 9,0 C 83 % 1012,4 hPa 0,0 l/m 0,0 km/h N 6,3 C 9,0 C 0,0 km/h
10.11.2014 03:00 8,6 C 83 % 1012,1 hPa 0,0 l/m 0,1 km/h N 5,8 C 8,6 C 1,6 km/h
10.11.2014 04:00 8,6 C 82 % 1012,3 hPa 0,3 l/m 0,4 km/h N 5,8 C 8,6 C 3,6 km/h
10.11.2014 05:00 9,8 C 81 % 1012,1 hPa 0,0 l/m 3,4 km/h N 6,6 C 9,8 C 12,5 km/h
10.11.2014 06:00 9,1 C 83 % 1012,3 hPa 0,0 l/m 0,3 km/h N 6,3 C 9,1 C 3,6 km/h
10.11.2014 07:00 7,9 C 83 % 1013,0 hPa 0,0 l/m 0,0 km/h N 5,1 C 7,9 C 0,4 km/h
10.11.2014 08:00 8,8 C 81 % 1013,6 hPa 0,0 l/m 0,0 km/h N 5,7 C 8,8 C 0,0 km/h
10.11.2014 09:00 11,0 C 80 % 1013,6 hPa 0,0 l/m 0,1 km/h N 7,7 C 11,0 C 2,0 km/h
10.11.2014 10:00 12,4 C 81 % 1013,6 hPa 0,0 l/m 0,2 km/h N 9,2 C 12,4 C 4,0 km/h
10.11.2014 11:00 13,8 C 84 % 1013,3 hPa 0,0 l/m 0,7 km/h N 11,2 C 13,8 C 4,3 km/h
10.11.2014 12:00 14,3 C 84 % 1013,1 hPa 0,0 l/m 1,5 km/h N 11,6 C 14,3 C 4,8 km/h
10.11.2014 15:00 16,5 C 75 % 1012,3 hPa 0,0 l/m 0,0 km/h N 12,0 C 16,5 C 0,5 km/h
10.11.2014 16:00 15,1 C 76 % 1012,2 hPa 0,0 l/m 0,0 km/h N 11,0 C 15,1 C 0,0 km/h
10.11.2014 17:00 12,3 C 81 % 1012,5 hPa 0,0 l/m 0,0 km/h N 9,1 C 12,3 C 0,0 km/h
10.11.2014 18:00 10,5 C 84 % 1012,8 hPa 0,0 l/m 0,0 km/h N 7,8 C 10,5 C 0,0 km/h
10.11.2014 19:00 9,4 C 85 % 1012,8 hPa 0,0 l/m 0,1 km/h N 7,0 C 9,4 C 1,2 km/h
10.11.2014 20:00 8,4 C 85 % 1012,9 hPa 0,0 l/m 0,1 km/h N 6,0 C 8,4 C 0,8 km/h
10.11.2014 21:00 8,0 C 84 % 1012,9 hPa 0,0 l/m 0,0 km/h N 5,5 C 8,0 C 0,0 km/h
10.11.2014 22:00 8,3 C 83 % 1012,9 hPa 0,0 l/m 0,2 km/h N 5,5 C 8,3 C 3,2 km/h
10.11.2014 23:00 8,0 C 83 % 1013,1 hPa 0,0 l/m 0,2 km/h N 5,3 C 8,0 C 2,0 km/h
11.11.2014 00:00 8,5 C 82 % 1013,3 hPa 0,0 l/m 0,5 km/h N 5,5 C 8,5 C 4,8 km/h
11.11.2014 01:00 8,0 C 82 % 1013,5 hPa 0,0 l/m 0,2 km/h N 5,0 C 8,0 C 2,4 km/h
11.11.2014 02:00 7,4 C 82 % 1013,5 hPa 0,0 l/m 0,1 km/h N 4,4 C 7,4 C 1,6 km/h
11.11.2014 03:00 7,6 C 80 % 1013,4 hPa 0,0 l/m 0,1 km/h N 4,4 C 7,6 C 1,2 km/h
11.11.2014 04:00 8,7 C 80 % 1013,4 hPa 0,0 l/m 0,3 km/h N 5,4 C 8,7 C 2,0 km/h
11.11.2014 05:00 8,9 C 80 % 1013,3 hPa 0,0 l/m 0,1 km/h N 5,5 C 8,9 C 1,6 km/h
11.11.2014 06:00 8,9 C 80 % 1013,5 hPa 0,0 l/m 0,2 km/h N 5,6 C 8,9 C 2,8 km/h
11.11.2014 07:00 8,9 C 79 % 1013,6 hPa 0,0 l/m 0,2 km/h N 5,4 C 8,9 C 2,8 km/h
11.11.2014 08:00 9,3 C 79 % 1013,6 hPa 0,0 l/m 0,2 km/h N 5,8 C 9,3 C 2,4 km/h
11.11.2014 09:00 10,4 C 78 % 1013,4 hPa 0,0 l/m 0,2 km/h N 6,8 C 10,4 C 2,0 km/h
11.11.2014 10:00 11,1 C 78 % 1013,3 hPa 0,0 l/m 0,2 km/h N 7,4 C 11,1 C 2,4 km/h
11.11.2014 11:00 12,3 C 77 % 1012,5 hPa 0,0 l/m 0,9 km/h N 8,4 C 12,3 C 5,2 km/h
11.11.2014 12:00 15,2 C 81 % 1011,3 hPa 0,0 l/m 1,4 km/h N 12,0 C 15,2 C 8,4 km/h
11.11.2014 13:00 18,8 C 68 % 1010,4 hPa 0,0 l/m 7,9 km/h N 12,7 C 18,1 C 25,3 km/h
11.11.2014 14:00 18,5 C 68 % 1010,5 hPa 0,0 l/m 9,2 km/h N 12,4 C 17,3 C 24,1 km/h
11.11.2014 15:00 17,1 C 74 % 1010,6 hPa 0,0 l/m 6,0 km/h N 12,5 C 17,1 C 18,5 km/h
11.11.2014 16:00 16,5 C 77 % 1010,5 hPa 0,0 l/m 3,9 km/h N 12,3 C 16,5 C 14,5 km/h
11.11.2014 17:00 15,2 C 79 % 1010,8 hPa 0,0 l/m 1,8 km/h N 11,6 C 15,2 C 10,5 km/h
11.11.2014 18:00 14,2 C 81 % 1010,9 hPa 0,0 l/m 1,3 km/h N 11,0 C 14,2 C 9,7 km/h
11.11.2014 19:00 13,4 C 82 % 1010,8 hPa 0,0 l/m 1,9 km/h N 10,4 C 13,4 C 10,5 km/h
11.11.2014 20:00 13,3 C 82 % 1010,6 hPa 0,0 l/m 7,0 km/h N 10,2 C 12,6 C 18,1 km/h
11.11.2014 21:00 12,5 C 83 % 1010,3 hPa 0,0 l/m 11,6 km/h N 9,7 C 9,6 C 25,3 km/h
11.11.2014 22:00 11,7 C 85 % 1010,2 hPa 0,0 l/m 6,4 km/h N 9,2 C 11,4 C 19,7 km/h
11.11.2014 23:00 11,5 C 85 % 1010,0 hPa 0,0 l/m 5,4 km/h N 9,1 C 11,3 C 17,7 km/h
12.11.2014 00:00 11,4 C 85 % 1009,6 hPa 0,0 l/m 3,5 km/h N 8,9 C 11,4 C 11,7 km/h
12.11.2014 01:00 11,2 C 85 % 1009,0 hPa 0,0 l/m 3,6 km/h N 8,8 C 11,2 C 12,5 km/h
12.11.2014 02:00 10,8 C 85 % 1008,7 hPa 0,0 l/m 2,4 km/h N 8,4 C 10,8 C 9,7 km/h
12.11.2014 03:00 10,6 C 84 % 1008,4 hPa 0,0 l/m 1,7 km/h N 8,0 C 10,6 C 9,7 km/h
12.11.2014 04:00 10,2 C 84 % 1008,0 hPa 0,0 l/m 1,1 km/h N 7,6 C 10,2 C 7,6 km/h
12.11.2014 05:00 10,2 C 83 % 1007,6 hPa 0,0 l/m 3,3 km/h N 7,4 C 10,2 C 10,9 km/h
12.11.2014 06:00 9,9 C 83 % 1007,6 hPa 0,0 l/m 1,9 km/h N 7,2 C 9,9 C 10,5 km/h
12.11.2014 07:00 9,9 C 83 % 1007,9 hPa 0,0 l/m 1,4 km/h N 7,1 C 9,9 C 9,3 km/h
12.11.2014 08:00 10,0 C 82 % 1008,1 hPa 0,0 l/m 0,6 km/h N 7,1 C 10,0 C 4,8 km/h
12.11.2014 09:00 10,4 C 82 % 1008,2 hPa 0,0 l/m 1,9 km/h N 7,6 C 10,4 C 9,2 km/h
12.11.2014 10:00 12,0 C 84 % 1008,0 hPa 0,0 l/m 4,2 km/h N 9,4 C 12,0 C 14,1 km/h
12.11.2014 11:00 13,6 C 82 % 1007,5 hPa 0,0 l/m 5,2 km/h N 10,5 C 13,5 C 16,9 km/h
12.11.2014 12:00 14,3 C 80 % 1007,0 hPa 0,0 l/m 4,6 km/h N 10,9 C 14,3 C 16,9 km/h
12.11.2014 13:00 14,1 C 81 % 1006,7 hPa 0,0 l/m 2,7 km/h N 10,8 C 14,1 C 10,5 km/h
12.11.2014 14:00 14,1 C 81 % 1006,3 hPa 0,0 l/m 2,7 km/h N 10,9 C 14,1 C 12,5 km/h
12.11.2014 15:00 14,1 C 81 % 1006,1 hPa 0,0 l/m 2,5 km/h N 10,9 C 14,1 C 12,0 km/h
12.11.2014 16:00 13,4 C 83 % 1006,3 hPa 0,0 l/m 2,5 km/h N 10,5 C 13,4 C 13,3 km/h
12.11.2014 17:00 12,5 C 83 % 1006,7 hPa 0,0 l/m 4,4 km/h N 9,7 C 12,5 C 14,5 km/h
12.11.2014 18:00 12,1 C 84 % 1007,5 hPa 0,0 l/m 1,8 km/h N 9,4 C 12,1 C 9,3 km/h
12.11.2014 19:00 11,5 C 85 % 1007,6 hPa 0,0 l/m 1,4 km/h N 9,0 C 11,5 C 7,6 km/h
12.11.2014 20:00 11,1 C 85 % 1007,8 hPa 0,0 l/m 0,9 km/h N 8,7 C 11,1 C 6,8 km/h
12.11.2014 21:00 10,7 C 85 % 1008,0 hPa 0,0 l/m 0,8 km/h N 8,3 C 10,7 C 6,4 km/h
12.11.2014 22:00 10,2 C 85 % 1008,1 hPa 0,0 l/m 0,8 km/h N 7,8 C 10,2 C 5,6 km/h
12.11.2014 23:00 9,3 C 85 % 1008,3 hPa 0,0 l/m 0,0 km/h N 6,9 C 9,3 C 0,8 km/h
13.11.2014 00:00 8,4 C 85 % 1008,6 hPa 0,0 l/m 0,0 km/h N 6,0 C 8,4 C 0,0 km/h
13.11.2014 01:00 8,0 C 85 % 1009,1 hPa 0,0 l/m 0,0 km/h N 5,6 C 8,0 C 0,0 km/h
13.11.2014 02:00 8,7 C 84 % 1009,3 hPa 0,0 l/m 0,1 km/h N 6,1 C 8,7 C 2,8 km/h
13.11.2014 03:00 8,9 C 83 % 1009,3 hPa 0,0 l/m 0,1 km/h N 6,2 C 8,9 C 2,4 km/h
13.11.2014 04:00 8,9 C 83 % 1009,8 hPa 0,0 l/m 0,1 km/h N 6,1 C 8,9 C 2,0 km/h
13.11.2014 05:00 8,8 C 83 % 1010,3 hPa 0,0 l/m 0,0 km/h N 6,0 C 8,8 C 0,0 km/h
13.11.2014 06:00 8,8 C 83 % 1010,7 hPa 0,0 l/m 0,0 km/h N 6,1 C 8,8 C 0,0 km/h
13.11.2014 07:00 9,1 C 84 % 1011,3 hPa 0,0 l/m 0,0 km/h N 6,4 C 9,1 C 0,0 km/h
13.11.2014 08:00 9,6 C 83 % 1011,9 hPa 0,0 l/m 0,1 km/h N 6,8 C 9,6 C 2,4 km/h
13.11.2014 09:00 10,4 C 84 % 1012,3 hPa 0,0 l/m 0,7 km/h N 7,7 C 10,4 C 3,2 km/h
13.11.2014 10:00 11,4 C 84 % 1012,5 hPa 0,0 l/m 0,3 km/h N 8,8 C 11,4 C 3,6 km/h
13.11.2014 11:00 12,3 C 79 % 1012,4 hPa 0,0 l/m 1,2 km/h N 8,8 C 12,3 C 6,0 km/h
13.11.2014 12:00 12,4 C 77 % 1012,3 hPa 0,0 l/m 0,4 km/h N 8,6 C 12,4 C 3,2 km/h
13.11.2014 13:00 12,6 C 79 % 1012,4 hPa 0,0 l/m 1,1 km/h N 9,0 C 12,6 C 6,4 km/h
13.11.2014 14:00 12,6 C 79 % 1012,4 hPa 0,0 l/m 0,9 km/h N 9,0 C 12,6 C 6,0 km/h
13.11.2014 15:00 12,3 C 79 % 1012,8 hPa 0,0 l/m 0,6 km/h N 8,8 C 12,3 C 4,4 km/h
13.11.2014 16:00 12,1 C 80 % 1013,3 hPa 0,0 l/m 0,4 km/h N 8,7 C 12,1 C 3,6 km/h
13.11.2014 17:00 12,0 C 79 % 1013,9 hPa 0,0 l/m 0,1 km/h N 8,5 C 12,0 C 1,6 km/h
13.11.2014 18:00 11,7 C 81 % 1014,4 hPa 0,0 l/m 0,1 km/h N 8,5 C 11,7 C 2,4 km/h
13.11.2014 19:00 11,6 C 81 % 1014,6 hPa 0,0 l/m 0,0 km/h N 8,5 C 11,6 C 0,4 km/h
13.11.2014 20:00 11,4 C 82 % 1014,6 hPa 0,0 l/m 0,0 km/h N 8,4 C 11,4 C 0,0 km/h
13.11.2014 21:00 11,2 C 83 % 1014,8 hPa 0,0 l/m 0,2 km/h N 8,4 C 11,2 C 0,8 km/h
13.11.2014 22:00 11,0 C 84 % 1014,9 hPa 0,0 l/m 0,0 km/h N 8,3 C 11,0 C 0,0 km/h
13.11.2014 23:00 10,7 C 84 % 1015,0 hPa 0,0 l/m 0,0 km/h N 8,1 C 10,7 C 0,0 km/h
14.11.2014 00:00 10,0 C 84 % 1015,0 hPa 0,0 l/m 0,0 km/h N 7,5 C 10,0 C 0,0 km/h
14.11.2014 01:00 9,6 C 85 % 1015,0 hPa 0,0 l/m 0,0 km/h N 7,2 C 9,6 C 0,0 km/h
14.11.2014 02:00 9,4 C 85 % 1015,1 hPa 0,0 l/m 0,0 km/h N 7,1 C 9,4 C 0,0 km/h
14.11.2014 03:00 9,3 C 85 % 1014,9 hPa 0,0 l/m 0,0 km/h N 6,9 C 9,3 C 0,0 km/h
14.11.2014 04:00 9,1 C 85 % 1015,0 hPa 0,0 l/m 0,0 km/h N 6,7 C 9,1 C 0,0 km/h
14.11.2014 05:00 9,2 C 84 % 1015,0 hPa 0,0 l/m 0,0 km/h N 6,6 C 9,2 C 0,0 km/h
14.11.2014 06:00 9,4 C 84 % 1015,0 hPa 0,0 l/m 0,0 km/h N 6,8 C 9,4 C 0,0 km/h
14.11.2014 07:00 9,5 C 84 % 1015,1 hPa 0,0 l/m 0,0 km/h N 7,0 C 9,5 C 0,0 km/h
14.11.2014 08:00 9,8 C 83 % 1015,2 hPa 0,0 l/m 0,0 km/h N 7,1 C 9,8 C 1,6 km/h
14.11.2014 09:00 10,6 C 83 % 1015,0 hPa 0,0 l/m 0,2 km/h N 7,8 C 10,6 C 3,2 km/h
14.11.2014 10:00 12,0 C 85 % 1014,7 hPa 0,0 l/m 1,8 km/h N 9,4 C 12,0 C 7,2 km/h
14.11.2014 11:00 13,1 C 83 % 1014,2 hPa 0,0 l/m 4,3 km/h N 10,1 C 13,1 C 16,9 km/h
14.11.2014 12:00 13,9 C 81 % 1013,5 hPa 0,0 l/m 4,0 km/h N 10,7 C 13,9 C 17,7 km/h
14.11.2014 13:00 14,2 C 80 % 1013,1 hPa 0,0 l/m 5,0 km/h N 10,8 C 14,2 C 16,5 km/h
14.11.2014 14:00 14,3 C 80 % 1013,0 hPa 0,0 l/m 4,5 km/h N 10,9 C 14,3 C 15,7 km/h
14.11.2014 15:00 14,1 C 80 % 1013,0 hPa 0,0 l/m 4,4 km/h N 10,6 C 14,1 C 18,5 km/h
14.11.2014 16:00 13,0 C 82 % 1013,0 hPa 0,0 l/m 2,4 km/h N 10,0 C 13,0 C 10,5 km/h
14.11.2014 17:00 12,1 C 84 % 1013,0 hPa 0,0 l/m 2,1 km/h N 9,4 C 12,1 C 9,7 km/h
14.11.2014 18:00 12,1 C 83 % 1013,0 hPa 0,0 l/m 2,5 km/h N 9,4 C 12,1 C 8,4 km/h
14.11.2014 19:00 12,3 C 82 % 1013,0 hPa 0,0 l/m 3,8 km/h N 9,2 C 12,3 C 12,5 km/h
14.11.2014 20:00 12,3 C 82 % 1012,9 hPa 0,0 l/m 2,2 km/h N 9,3 C 12,3 C 10,5 km/h
14.11.2014 21:00 12,8 C 80 % 1012,9 hPa 0,0 l/m 5,8 km/h N 9,4 C 12,8 C 18,1 km/h
14.11.2014 22:00 12,8 C 79 % 1012,4 hPa 0,0 l/m 7,9 km/h N 9,2 C 11,9 C 21,7 km/h
14.11.2014 23:00 12,6 C 79 % 1012,0 hPa 0,0 l/m 7,2 km/h N 9,1 C 12,0 C 20,5 km/h
15.11.2014 00:00 12,3 C 82 % 1011,7 hPa 0,0 l/m 6,4 km/h N 9,2 C 11,7 C 19,7 km/h
15.11.2014 01:00 12,2 C 81 % 1011,3 hPa 0,0 l/m 7,9 km/h N 8,9 C 11,2 C 21,3 km/h
15.11.2014 02:00 12,1 C 80 % 1010,8 hPa 0,0 l/m 9,5 km/h N 8,8 C 10,3 C 28,2 km/h
15.11.2014 03:00 12,0 C 79 % 1010,2 hPa 0,0 l/m 9,8 km/h N 8,5 C 10,0 C 25,0 km/h
15.11.2014 04:00 12,1 C 79 % 1010,1 hPa 0,0 l/m 11,3 km/h N 8,5 C 9,2 C 25,7 km/h
15.11.2014 05:00 12,0 C 80 % 1009,8 hPa 0,0 l/m 10,3 km/h N 8,7 C 9,6 C 24,5 km/h
15.11.2014 06:00 11,9 C 81 % 1009,5 hPa 0,0 l/m 10,1 km/h N 8,8 C 9,7 C 25,3 km/h
15.11.2014 07:00 11,7 C 83 % 1009,5 hPa 0,0 l/m 7,8 km/h N 8,8 C 10,7 C 23,7 km/h
15.11.2014 08:00 11,7 C 84 % 1009,1 hPa 0,0 l/m 11,2 km/h N 9,0 C 8,9 C 25,3 km/h
15.11.2014 09:00 12,3 C 81 % 1009,0 hPa 0,0 l/m 10,2 km/h N 9,2 C 10,1 C 25,7 km/h
15.11.2014 10:00 11,9 C 83 % 1008,9 hPa 0,0 l/m 8,7 km/h N 9,0 C 10,4 C 23,3 km/h
15.11.2014 11:00 11,8 C 83 % 1008,3 hPa 0,0 l/m 8,8 km/h N 9,0 C 10,2 C 24,1 km/h
15.11.2014 12:00 12,2 C 82 % 1007,4 hPa 0,0 l/m 9,7 km/h N 9,2 C 10,2 C 24,9 km/h
15.11.2014 13:00 12,4 C 82 % 1007,0 hPa 0,0 l/m 10,5 km/h N 9,4 C 10,0 C 27,3 km/h
15.11.2014 14:00 12,4 C 82 % 1006,5 hPa 0,0 l/m 8,6 km/h N 9,4 C 11,1 C 23,7 km/h
15.11.2014 15:00 12,3 C 83 % 1006,4 hPa 0,0 l/m 8,6 km/h N 9,5 C 10,9 C 26,1 km/h
15.11.2014 16:00 11,9 C 84 % 1006,3 hPa 0,0 l/m 6,8 km/h N 9,1 C 11,6 C 18,5 km/h
15.11.2014 17:00 11,5 C 85 % 1006,2 hPa 0,0 l/m 5,2 km/h N 9,0 C 11,5 C 17,7 km/h
15.11.2014 18:00 11,1 C 85 % 1006,0 hPa 0,0 l/m 5,6 km/h N 8,7 C 11,1 C 19,3 km/h
15.11.2014 19:00 10,9 C 85 % 1005,8 hPa 0,0 l/m 4,3 km/h N 8,5 C 10,9 C 16,9 km/h
15.11.2014 20:00 10,8 C 85 % 1005,6 hPa 0,0 l/m 5,3 km/h N 8,3 C 10,6 C 17,7 km/h
15.11.2014 21:00 10,6 C 85 % 1005,7 hPa 0,0 l/m 4,8 km/h N 8,2 C 10,6 C 18,1 km/h
15.11.2014 22:00 10,4 C 85 % 1005,5 hPa 0,0 l/m 5,7 km/h N 7,9 C 10,3 C 16,9 km/h
15.11.2014 23:00 10,3 C 84 % 1005,1 hPa 0,0 l/m 2,8 km/h N 7,7 C 10,3 C 13,3 km/h
16.11.2014 00:00 10,5 C 85 % 1004,5 hPa 0,0 l/m 4,9 km/h N 8,0 C 10,1 C 16,9 km/h
16.11.2014 01:00 10,2 C 85 % 1004,6 hPa 0,0 l/m 6,6 km/h N 7,8 C 9,9 C 18,9 km/h
16.11.2014 02:00 9,8 C 86 % 1004,8 hPa 0,0 l/m 3,0 km/h N 7,4 C 9,8 C 12,1 km/h
16.11.2014 03:00 9,8 C 85 % 1004,5 hPa 0,0 l/m 3,9 km/h N 7,4 C 9,8 C 16,5 km/h
16.11.2014 04:00 9,6 C 85 % 1004,5 hPa 0,0 l/m 3,0 km/h N 7,2 C 9,6 C 12,1 km/h
16.11.2014 05:00 9,4 C 85 % 1004,5 hPa 0,0 l/m 1,5 km/h N 7,0 C 9,4 C 10,0 km/h
16.11.2014 06:00 9,3 C 85 % 1004,6 hPa 0,0 l/m 2,2 km/h N 6,9 C 9,3 C 11,3 km/h
16.11.2014 07:00 8,7 C 85 % 1004,6 hPa 0,0 l/m 2,7 km/h N 6,3 C 8,7 C 11,7 km/h
16.11.2014 08:00 8,7 C 85 % 1004,7 hPa 0,0 l/m 7,0 km/h N 6,3 C 8,0 C 20,9 km/h
16.11.2014 09:00 8,8 C 85 % 1004,9 hPa 0,0 l/m 4,6 km/h N 6,4 C 8,8 C 16,9 km/h
16.11.2014 10:00 9,3 C 85 % 1005,2 hPa 0,0 l/m 6,0 km/h N 6,9 C 9,1 C 19,7 km/h
16.11.2014 11:00 10,5 C 86 % 1005,1 hPa 0,0 l/m 4,6 km/h N 8,2 C 10,5 C 15,7 km/h
16.11.2014 12:00 11,6 C 85 % 1005,1 hPa 0,0 l/m 2,5 km/h N 9,1 C 11,6 C 12,1 km/h
16.11.2014 13:00 11,8 C 84 % 1005,2 hPa 0,0 l/m 1,5 km/h N 9,2 C 11,8 C 8,9 km/h
16.11.2014 14:00 11,8 C 84 % 1005,6 hPa 0,0 l/m 1,0 km/h N 9,2 C 11,8 C 6,8 km/h
16.11.2014 15:00 10,9 C 85 % 1006,3 hPa 0,0 l/m 0,7 km/h N 8,4 C 10,9 C 6,0 km/h
16.11.2014 16:00 10,1 C 87 % 1007,2 hPa 0,0 l/m 1,1 km/h N 7,9 C 10,1 C 6,0 km/h
16.11.2014 17:00 9,8 C 86 % 1007,6 hPa 0,0 l/m 0,2 km/h N 7,5 C 9,8 C 3,6 km/h
16.11.2014 18:00 9,4 C 86 % 1008,2 hPa 0,0 l/m 0,1 km/h N 7,2 C 9,4 C 2,0 km/h
16.11.2014 19:00 9,2 C 86 % 1008,3 hPa 0,0 l/m 0,1 km/h N 7,0 C 9,2 C 2,8 km/h
16.11.2014 20:00 9,0 C 85 % 1008,3 hPa 0,0 l/m 0,2 km/h N 6,6 C 9,0 C 3,6 km/h
16.11.2014 21:00 8,8 C 85 % 1008,4 hPa 0,3 l/m 0,2 km/h N 6,4 C 8,8 C 3,2 km/h
16.11.2014 22:00 8,7 C 84 % 1008,4 hPa 0,5 l/m 0,3 km/h N 6,1 C 8,7 C 3,6 km/h
16.11.2014 23:00 8,7 C 83 % 1008,3 hPa 0,0 l/m 0,3 km/h N 6,0 C 8,7 C 3,6 km/h
Min-Datum _ 11.11.14 11.11.14 16.11.14 - 10.11.14 - 11.11.14 11.11.14 10.11.14
_ Min-Zeit 02:45 13:45 00:15 - 00:45 - 03:00 02:45 01:30
Minimum _ 7,2 C 65 % 1004,3 hPa - 0,0 km/h - 4,2 C 7,2 C 0,0 km/h
Max-Datum _ 11.11.14 16.11.14 14.11.14 16.11.14 15.11.14 - 11.11.14 11.11.14 15.11.14
_ Max-Zeit 13:45 16:30 07:30 22:00 09:00 - 12:45 13:45 09:00
Maximum _ 19,2 C 89 % 1015,3 hPa 0,5 l/m 12,6 km/h
N
- 13,3 C 18,5 C 32,2 km/h
N
Durchschnitt _ 11,1 C 82 % 1010,3 hPa #1,0 l/m 2,7 km/h N 8,2 C 10,9 C 9,4 km/h